Salvatorian Center, Wisconsin
Current Conditions -  °F | °C
As of 2:05 PM on Sunday 23 Nov 2014 (Local Time) from KSBM Reporting Station
Light Rain Light Rain  
Wind Chill: 42°   Ceiling: 400
Heat Index: 47°   Visibility: 2.5mi
Dew Point: 45°   Wind: 12mph
Humidity: 93%   Direction: 180°S
Pressure: 29.5"   Gusts: NA
Location:  43.9485°N, 88.0849°W
Report Text: KSBM 232005Z AUTO 18010KT 2 1/2SM -RA BR BKN004 BKN037 OVC048 08/07 A2950 RMK AO2 P0001 T00830072
Loading
Personal Weather Stations






























Interactive Weather Map New forecast layout! Learn more

10-Day Weather Forecast

Advertisements
Track Severe Weather on mobile